Time;durP1;ratioP1;P1;durP2;ratioP2;P2;SDS_P1;SDS_P2;PMS_P1;PMS_P2;Temp;Humidity;BMP_temperature;BMP_pressure;BME280_temperature;BME280_humidity;BME280_pressure;Samples;Min_cycle;Max_cycle;Signal;HPM_P1;HPM_P2
2021/12/25 00:00:04;;;;;;;9.68;8.77;;;7.00;99.90;;;;;;2089024;28;20059;-72
2021/12/25 00:01:07;;;;;;;9.02;8.23;;;7.00;99.90;;;;;;2088725;28;20116;-72
2021/12/25 00:02:09;;;;;;;9.43;8.52;;;7.00;99.90;;;;;;2086116;28;20032;-72
2021/12/25 00:03:09;;;;;;;8.98;8.18;;;6.90;99.90;;;;;;2079979;28;20404;-72
2021/12/25 00:04:10;;;;;;;10.27;9.23;;;6.90;99.90;;;;;;2080580;28;20159;-72
2021/12/25 00:05:12;;;;;;;8.80;8.00;;;6.90;99.90;;;;;;2080602;28;20028;-72
2021/12/25 00:06:12;;;;;;;8.70;7.97;;;6.90;99.90;;;;;;2080701;28;20361;-72
2021/12/25 00:07:13;;;;;;;9.40;8.60;;;6.90;99.90;;;;;;2080284;28;20052;-72
2021/12/25 00:08:14;;;;;;;9.25;8.48;;;6.90;99.90;;;;;;2080515;28;20079;-72
2021/12/25 00:09:15;;;;;;;9.13;8.43;;;6.90;99.90;;;;;;2079584;28;20543;-72
2021/12/25 00:10:15;;;;;;;9.40;8.43;;;6.80;99.90;;;;;;2078503;28;20029;-72
2021/12/25 00:11:16;;;;;;;9.15;8.43;;;6.80;99.90;;;;;;2073432;28;20498;-72
2021/12/25 00:12:16;;;;;;;9.18;8.38;;;6.80;99.90;;;;;;2078438;28;20030;-72
2021/12/25 00:13:20;;;;;;;10.02;9.13;;;6.80;99.90;;;;;;2074260;28;20026;-72
2021/12/25 00:14:22;;;;;;;9.70;8.90;;;6.80;99.90;;;;;;2073005;28;20041;-72
2021/12/25 00:15:23;;;;;;;10.07;9.15;;;6.80;99.90;;;;;;2088838;28;20028;-72
2021/12/25 00:16:23;;;;;;;10.82;9.93;;;6.70;99.90;;;;;;2085121;28;20036;-72
2021/12/25 00:17:26;;;;;;;10.35;9.45;;;6.70;99.90;;;;;;2079835;28;20476;-72
2021/12/25 00:18:27;;;;;;;10.48;9.63;;;6.70;99.90;;;;;;2080239;28;20346;-72
2021/12/25 00:19:27;;;;;;;10.40;9.50;;;6.70;99.90;;;;;;2080435;28;20102;-72
2021/12/25 00:20:28;;;;;;;10.35;9.45;;;6.70;99.90;;;;;;2080525;28;20453;-72
2021/12/25 00:21:28;;;;;;;10.32;9.43;;;6.70;99.90;;;;;;2080587;28;20021;-72
2021/12/25 00:22:29;;;;;;;11.55;10.60;;;6.70;99.90;;;;;;2079971;28;20028;-72
2021/12/25 00:23:30;;;;;;;12.32;11.23;;;6.70;99.90;;;;;;2079815;28;20068;-72
2021/12/25 00:24:31;;;;;;;13.23;12.07;;;6.70;99.90;;;;;;2079623;28;20053;-72
2021/12/25 00:25:39;;;;;;;12.50;11.40;;;6.60;99.90;;;;;;2076671;28;20030;-72
2021/12/25 00:28:59;;;;;;;12.45;11.35;;;6.60;99.90;;;;;;2080695;28;20053;-72
2021/12/25 00:30:37;;;;;;;12.63;11.43;;;6.50;99.90;;;;;;2077258;28;20630;-72
2021/12/25 00:31:51;;;;;;;14.30;13.10;;;6.40;99.90;;;;;;2077221;28;20283;-72
2021/12/25 00:33:58;;;;;;;13.75;12.55;;;6.40;99.90;;;;;;2081397;28;20109;-72
2021/12/25 00:34:58;;;;;;;13.35;12.20;;;6.40;99.90;;;;;;2076115;28;20442;-72
2021/12/25 00:35:59;;;;;;;13.60;12.40;;;6.30;99.90;;;;;;2077430;28;20386;-73
2021/12/25 00:37:00;;;;;;;13.20;12.15;;;6.30;99.90;;;;;;2080313;28;20505;-72
2021/12/25 00:38:01;;;;;;;12.75;11.65;;;6.30;99.90;;;;;;2088741;28;20029;-72
2021/12/25 00:39:01;;;;;;;14.27;12.48;;;6.20;99.90;;;;;;2088126;28;20418;-72
2021/12/25 00:40:07;;;;;;;14.23;12.93;;;6.20;99.90;;;;;;2088748;28;20040;-73
2021/12/25 00:41:08;;;;;;;13.93;12.73;;;6.20;99.90;;;;;;2078585;28;20029;-72
2021/12/25 00:42:10;;;;;;;13.40;12.20;;;6.20;99.90;;;;;;2080327;28;20429;-72
2021/12/25 00:43:10;;;;;;;13.80;12.63;;;6.20;99.90;;;;;;2079551;28;20021;-72
2021/12/25 00:44:11;;;;;;;14.02;12.73;;;6.20;99.90;;;;;;2079398;28;20034;-72
2021/12/25 00:45:12;;;;;;;13.90;12.70;;;6.10;99.90;;;;;;2072701;28;20105;-72
2021/12/25 00:46:13;;;;;;;14.63;13.32;;;6.10;99.90;;;;;;2078778;28;20034;-72
2021/12/25 00:47:14;;;;;;;15.43;14.02;;;6.10;99.90;;;;;;2075916;28;20025;-72
2021/12/25 00:48:15;;;;;;;17.55;15.85;;;6.10;99.90;;;;;;2087591;28;20033;-72
2021/12/25 00:49:15;;;;;;;16.27;14.82;;;6.10;99.90;;;;;;2088339;28;20535;-72
2021/12/25 00:50:16;;;;;;;15.73;14.32;;;6.10;99.90;;;;;;2087616;28;20033;-72
2021/12/25 00:51:17;;;;;;;16.25;14.77;;;6.10;99.90;;;;;;2087673;28;20492;-72
2021/12/25 00:52:17;;;;;;;16.83;15.27;;;6.00;99.90;;;;;;2096227;28;20114;-72
2021/12/25 00:53:18;;;;;;;16.20;14.80;;;6.00;99.90;;;;;;2087236;28;20029;-72
2021/12/25 00:54:19;;;;;;;16.83;15.23;;;6.10;99.90;;;;;;2079415;28;20029;-72
2021/12/25 00:55:20;;;;;;;16.73;15.05;;;6.10;99.90;;;;;;2085639;28;20080;-72
2021/12/25 00:56:20;;;;;;;17.05;15.55;;;6.00;99.90;;;;;;2080140;28;20025;-72
2021/12/25 00:57:21;;;;;;;15.85;14.35;;;6.00;99.90;;;;;;2088115;28;20087;-72
2021/12/25 00:58:21;;;;;;;16.05;14.60;;;6.10;99.90;;;;;;2087862;28;20853;-72
2021/12/25 00:59:22;;;;;;;16.02;14.60;;;6.10;99.90;;;;;;2087535;28;20021;-72
2021/12/25 01:00:23;;;;;;;15.18;13.85;;;6.10;99.90;;;;;;2086735;28;20029;-72
2021/12/25 01:01:23;;;;;;;14.00;12.85;;;6.00;99.90;;;;;;2079916;28;20025;-72
2021/12/25 01:02:24;;;;;;;15.20;13.75;;;6.00;99.90;;;;;;2080052;28;20030;-71
2021/12/25 01:03:25;;;;;;;13.27;12.18;;;6.00;99.90;;;;;;2079308;28;20506;-72
2021/12/25 01:04:26;;;;;;;14.02;12.73;;;6.00;99.90;;;;;;2080241;28;20025;-72
2021/12/25 01:05:26;;;;;;;12.20;11.20;;;6.00;99.90;;;;;;2080021;28;20143;-73
2021/12/25 01:06:27;;;;;;;11.30;10.30;;;6.00;99.90;;;;;;2079933;28;20053;-72
2021/12/25 01:07:27;;;;;;;11.82;10.82;;;5.90;99.90;;;;;;2080036;28;20022;-72
2021/12/25 01:08:28;;;;;;;11.55;10.55;;;5.90;99.90;;;;;;2080322;28;20026;-72
2021/12/25 01:09:28;;;;;;;11.50;10.50;;;5.80;99.90;;;;;;2079511;28;20091;-72
2021/12/25 01:10:30;;;;;;;12.20;11.20;;;5.90;99.90;;;;;;2076242;28;20054;-72
2021/12/25 01:11:31;;;;;;;11.00;10.05;;;5.80;99.90;;;;;;2073586;28;20524;-72
2021/12/25 01:12:43;;;;;;;11.77;10.70;;;5.80;99.90;;;;;;2071361;28;20036;-72
2021/12/25 01:13:51;;;;;;;11.15;10.25;;;5.80;99.90;;;;;;2072096;28;20041;-72
2021/12/25 01:14:57;;;;;;;11.68;10.68;;;5.80;99.90;;;;;;2077123;28;20497;-72
2021/12/25 01:17:27;;;;;;;10.35;9.55;;;5.80;99.90;;;;;;2079987;28;20044;-72
2021/12/25 01:20:08;;;;;;;10.45;9.55;;;5.80;99.90;;;;;;2075795;28;20516;-72
2021/12/25 01:26:09;;;;;;;9.45;8.65;;;5.60;99.90;;;;;;2080247;28;20033;-72
2021/12/25 01:35:59;;;;;;;9.70;8.90;;;5.50;99.90;;;;;;2079907;28;20025;-72
2021/12/25 01:36:59;;;;;;;9.57;8.77;;;5.50;99.90;;;;;;2074530;28;20033;-72
2021/12/25 01:38:08;;;;;;;9.18;8.43;;;5.50;99.90;;;;;;2072218;28;20017;-72
2021/12/25 01:39:19;;;;;;;9.00;8.30;;;5.50;99.90;;;;;;2075827;28;20362;-72
2021/12/25 01:40:43;;;;;;;10.18;9.27;;;5.50;99.90;;;;;;2080164;28;20017;-72
2021/12/25 01:47:53;;;;;;;8.93;8.23;;;5.40;99.90;;;;;;2071554;28;20022;-72
2021/12/25 01:48:54;;;;;;;9.48;8.68;;;5.40;99.90;;;;;;2075869;28;20041;-73
2021/12/25 01:49:59;;;;;;;9.57;8.77;;;5.40;99.90;;;;;;2078913;28;20100;-72
2021/12/25 01:51:00;;;;;;;9.15;8.45;;;5.40;99.90;;;;;;2079286;28;20044;-72
2021/12/25 01:52:01;;;;;;;9.88;9.07;;;5.30;99.90;;;;;;2079427;28;20056;-72
2021/12/25 01:53:02;;;;;;;9.93;9.23;;;5.30;99.90;;;;;;2079485;28;20432;-72
2021/12/25 01:54:03;;;;;;;10.32;9.52;;;5.30;99.90;;;;;;2079649;28;20504;-72
2021/12/25 01:55:08;;;;;;;11.18;10.23;;;5.30;99.90;;;;;;2079800;28;20025;-72
2021/12/25 01:56:09;;;;;;;11.52;10.63;;;5.30;99.90;;;;;;2072368;28;20030;-72
2021/12/25 01:57:09;;;;;;;11.23;10.32;;;5.30;99.90;;;;;;2079396;28;20109;-72
2021/12/25 01:58:10;;;;;;;11.13;10.23;;;5.30;99.90;;;;;;2078471;28;20048;-72
2021/12/25 01:59:11;;;;;;;12.07;11.10;;;5.30;99.90;;;;;;2083919;28;20025;-72
2021/12/25 02:00:21;;;;;;;11.80;10.88;;;5.30;99.90;;;;;;2077815;28;20060;-72
2021/12/25 02:01:21;;;;;;;11.82;10.82;;;5.30;99.90;;;;;;2080016;28;20049;-72
2021/12/25 02:02:22;;;;;;;11.25;10.30;;;5.30;99.90;;;;;;2087382;28;20104;-72
2021/12/25 02:03:29;;;;;;;11.25;10.25;;;5.30;99.90;;;;;;2087210;28;20032;-72
2021/12/25 02:04:30;;;;;;;11.35;10.35;;;5.30;99.90;;;;;;2087681;28;20350;-72
2021/12/25 02:05:31;;;;;;;10.68;9.77;;;5.30;99.90;;;;;;2088325;28;20395;-72
2021/12/25 02:06:32;;;;;;;10.40;9.60;;;5.30;99.90;;;;;;2086232;28;20029;-72
2021/12/25 02:07:32;;;;;;;10.57;9.68;;;5.30;99.90;;;;;;2079174;28;20047;-72
2021/12/25 02:08:33;;;;;;;10.75;9.95;;;5.30;99.90;;;;;;2084474;28;20033;-72
2021/12/25 02:09:34;;;;;;;10.75;9.75;;;5.20;99.90;;;;;;2088017;28;20021;-72
2021/12/25 02:10:35;;;;;;;10.68;9.77;;;5.20;99.90;;;;;;2076199;28;20069;-72
2021/12/25 02:11:35;;;;;;;10.40;9.57;;;5.20;99.90;;;;;;2081955;28;20473;-72
2021/12/25 02:12:36;;;;;;;11.13;10.13;;;5.20;99.90;;;;;;2079592;28;20034;-72
2021/12/25 02:13:38;;;;;;;11.15;10.25;;;5.20;99.90;;;;;;2077906;28;20018;-71
2021/12/25 02:14:42;;;;;;;11.05;10.13;;;5.20;99.90;;;;;;2073986;28;20103;-72
2021/12/25 02:15:46;;;;;;;11.98;10.93;;;5.20;99.90;;;;;;2073829;28;20018;-72
2021/12/25 02:17:02;;;;;;;12.07;11.10;;;5.20;99.90;;;;;;2074636;28;20611;-72
2021/12/25 02:18:14;;;;;;;10.88;9.98;;;5.20;99.90;;;;;;2072387;28;20029;-72
2021/12/25 02:19:32;;;;;;;11.93;10.93;;;5.10;99.90;;;;;;2072598;28;20026;-72
2021/12/25 02:20:43;;;;;;;10.90;10.00;;;5.10;99.90;;;;;;2073794;28;20010;-72
2021/12/25 02:21:43;;;;;;;11.40;10.40;;;5.10;99.90;;;;;;2087279;28;20040;-72
2021/12/25 02:22:46;;;;;;;11.88;10.88;;;5.10;99.90;;;;;;2086818;28;20013;-72
2021/12/25 02:23:48;;;;;;;12.30;11.23;;;5.10;99.90;;;;;;2087317;28;20017;-72
2021/12/25 02:24:48;;;;;;;11.93;10.93;;;5.10;99.90;;;;;;2075010;28;20024;-72
2021/12/25 02:25:55;;;;;;;12.40;11.40;;;5.10;99.90;;;;;;2072678;28;20458;-72
2021/12/25 02:26:56;;;;;;;12.63;11.52;;;5.10;99.90;;;;;;2079235;28;20461;-72
2021/12/25 02:27:56;;;;;;;12.00;11.00;;;5.10;99.90;;;;;;2078854;28;20424;-72
2021/12/25 02:28:57;;;;;;;13.15;12.05;;;5.10;99.90;;;;;;2078822;28;20072;-72
2021/12/25 02:29:58;;;;;;;12.90;11.82;;;5.10;99.90;;;;;;2079518;28;20099;-72
2021/12/25 02:31:02;;;;;;;13.65;12.50;;;5.10;99.90;;;;;;2079460;28;20021;-72
2021/12/25 02:32:07;;;;;;;14.00;12.73;;;5.10;99.90;;;;;;2079677;28;20384;-72
2021/12/25 02:33:07;;;;;;;13.68;12.48;;;5.10;99.90;;;;;;2078647;28;20034;-72
2021/12/25 02:34:08;;;;;;;14.10;12.80;;;5.10;99.90;;;;;;2082351;28;20040;-72
2021/12/25 02:35:09;;;;;;;12.98;11.88;;;5.10;99.90;;;;;;2072783;28;20030;-72
2021/12/25 02:36:12;;;;;;;13.45;12.25;;;5.10;99.90;;;;;;2077301;28;20032;-72
2021/12/25 02:37:12;;;;;;;13.05;11.95;;;5.10;99.90;;;;;;2078562;28;20117;-72
2021/12/25 02:38:14;;;;;;;12.50;11.40;;;5.10;99.90;;;;;;2079136;28;20029;-72
2021/12/25 02:39:14;;;;;;;12.63;11.43;;;5.10;99.90;;;;;;2083731;28;20033;-72
2021/12/25 02:40:15;;;;;;;13.23;12.13;;;5.10;99.90;;;;;;2088082;28;20025;-72
2021/12/25 02:41:16;;;;;;;12.65;11.55;;;5.10;99.90;;;;;;2081019;28;20032;-72
2021/12/25 02:42:17;;;;;;;12.45;11.40;;;5.10;99.90;;;;;;2075848;28;20109;-72
2021/12/25 02:43:18;;;;;;;14.38;13.02;;;5.10;99.90;;;;;;2076552;28;20021;-72
2021/12/25 02:44:18;;;;;;;14.25;12.88;;;5.10;99.90;;;;;;2091296;28;20021;-73
2021/12/25 02:45:21;;;;;;;13.75;12.45;;;5.00;99.90;;;;;;2088072;28;20552;-72
2021/12/25 02:46:24;;;;;;;14.85;13.45;;;5.00;99.90;;;;;;2087722;28;20025;-72
2021/12/25 02:47:24;;;;;;;15.18;13.88;;;5.00;99.90;;;;;;2087473;28;20017;-72
2021/12/25 02:48:25;;;;;;;14.93;13.52;;;5.00;99.90;;;;;;2087918;28;20112;-72
2021/12/25 02:49:26;;;;;;;14.68;13.27;;;5.00;99.90;;;;;;2087641;28;20070;-72
2021/12/25 02:50:31;;;;;;;14.98;13.57;;;5.00;99.90;;;;;;2078280;28;20018;-72
2021/12/25 02:51:32;;;;;;;14.98;13.68;;;5.00;99.90;;;;;;2079105;28;20029;-72
2021/12/25 02:52:32;;;;;;;14.25;12.95;;;5.00;99.90;;;;;;2079648;28;20029;-71
2021/12/25 02:53:34;;;;;;;14.27;12.98;;;5.00;99.90;;;;;;2080913;28;20056;-72
2021/12/25 02:54:35;;;;;;;14.68;13.38;;;5.00;99.90;;;;;;2083710;28;20053;-72
2021/12/25 02:55:37;;;;;;;14.52;13.07;;;4.90;99.90;;;;;;2080503;28;20087;-72
2021/12/25 02:56:38;;;;;;;14.82;13.43;;;4.90;99.90;;;;;;2080014;28;20034;-72
2021/12/25 02:57:39;;;;;;;13.10;11.80;;;4.90;99.90;;;;;;2087704;28;20500;-72
2021/12/25 02:58:40;;;;;;;14.77;13.38;;;4.90;99.90;;;;;;2087683;28;20193;-72
2021/12/25 02:59:41;;;;;;;14.02;12.80;;;4.90;99.90;;;;;;2087673;28;20028;-72
2021/12/25 03:00:45;;;;;;;13.70;12.45;;;4.90;99.90;;;;;;2083739;28;20041;-71
2021/12/25 03:01:45;;;;;;;14.30;12.93;;;4.80;99.90;;;;;;2083110;28;20075;-72
2021/12/25 03:02:46;;;;;;;14.32;12.82;;;4.80;99.90;;;;;;2087776;28;20032;-72
2021/12/25 03:03:47;;;;;;;14.43;13.13;;;4.80;99.90;;;;;;2088116;28;20021;-72
2021/12/25 03:04:49;;;;;;;14.38;13.07;;;4.80;99.90;;;;;;2088932;28;20021;-72
2021/12/25 03:05:51;;;;;;;13.15;11.95;;;4.80;99.90;;;;;;2096234;28;20021;-72
2021/12/25 03:06:52;;;;;;;12.77;11.68;;;4.80;99.90;;;;;;2096263;28;20016;-72
2021/12/25 03:07:53;;;;;;;13.02;11.90;;;4.80;99.90;;;;;;2089109;28;20028;-72
2021/12/25 03:08:53;;;;;;;14.15;12.85;;;4.80;99.90;;;;;;2085689;28;20080;-72
2021/12/25 03:09:54;;;;;;;14.77;13.38;;;4.80;99.90;;;;;;2081413;28;20017;-72
2021/12/25 03:10:55;;;;;;;14.55;13.13;;;4.80;99.90;;;;;;2089174;28;20416;-72
2021/12/25 03:11:56;;;;;;;14.32;12.90;;;4.80;99.90;;;;;;2087517;28;20028;-71
2021/12/25 03:13:29;;;;;;;13.85;12.45;;;4.80;99.90;;;;;;2076675;28;20030;-74
2021/12/25 03:14:38;;;;;;;13.75;12.45;;;4.80;99.90;;;;;;2082179;28;20030;-72
2021/12/25 03:15:51;;;;;;;14.50;13.10;;;4.70;99.90;;;;;;2090672;28;20029;-72
2021/12/25 03:16:52;;;;;;;13.45;12.25;;;4.70;99.90;;;;;;2090337;28;20543;-72
2021/12/25 03:17:54;;;;;;;14.85;13.40;;;4.70;99.90;;;;;;2090415;28;20452;-72
2021/12/25 03:18:56;;;;;;;14.27;12.98;;;4.70;99.90;;;;;;2090469;28;20156;-72
2021/12/25 03:19:57;;;;;;;14.95;13.48;;;4.70;99.90;;;;;;2083705;28;20392;-72
2021/12/25 03:21:00;;;;;;;14.70;13.30;;;4.70;99.90;;;;;;2081848;28;20082;-72
2021/12/25 03:22:04;;;;;;;15.18;13.68;;;4.70;99.90;;;;;;2082373;28;20025;-72
2021/12/25 03:23:04;;;;;;;15.00;13.60;;;4.70;99.90;;;;;;2081576;28;20021;-72
2021/12/25 03:24:05;;;;;;;14.75;13.20;;;4.60;99.90;;;;;;2082518;28;20105;-72
2021/12/25 03:25:12;;;;;;;15.15;13.43;;;4.70;99.90;;;;;;2090440;28;20017;-72
2021/12/25 03:26:13;;;;;;;14.73;13.35;;;4.60;99.90;;;;;;2087575;28;20381;-72
2021/12/25 03:27:14;;;;;;;14.85;13.48;;;4.60;99.90;;;;;;2083436;28;20026;-72
2021/12/25 03:28:16;;;;;;;14.90;13.48;;;4.60;99.90;;;;;;2074003;28;20088;-72
2021/12/25 03:29:17;;;;;;;14.95;13.55;;;4.60;99.90;;;;;;2077322;28;20055;-72
2021/12/25 03:30:20;;;;;;;15.73;14.23;;;4.60;99.90;;;;;;2081658;28;20079;-72
2021/12/25 03:31:21;;;;;;;15.27;13.77;;;4.60;99.90;;;;;;2081453;28;20029;-72
2021/12/25 03:32:22;;;;;;;14.00;12.70;;;4.60;99.90;;;;;;2082107;28;20443;-72
2021/12/25 03:33:23;;;;;;;15.30;13.80;;;4.60;99.90;;;;;;2081508;28;20130;-72
2021/12/25 03:34:23;;;;;;;15.63;14.13;;;4.60;99.90;;;;;;2079994;28;20684;-72
2021/12/25 03:35:24;;;;;;;14.80;13.30;;;4.70;99.90;;;;;;2073587;28;20104;-72
2021/12/25 03:36:24;;;;;;;14.60;13.10;;;4.60;99.90;;;;;;2090275;28;20083;-72
2021/12/25 03:37:25;;;;;;;15.73;14.18;;;4.60;99.90;;;;;;2086375;28;20021;-72
2021/12/25 03:38:27;;;;;;;15.40;13.90;;;4.60;99.90;;;;;;2082204;28;20029;-72
2021/12/25 03:39:28;;;;;;;15.90;14.40;;;4.60;99.90;;;;;;2081877;28;20021;-72
2021/12/25 03:40:28;;;;;;;15.50;14.00;;;4.60;99.90;;;;;;2081984;28;20053;-72
2021/12/25 03:41:29;;;;;;;14.70;13.30;;;4.60;99.90;;;;;;2073891;28;20088;-71
2021/12/25 03:42:30;;;;;;;16.08;14.48;;;4.60;99.90;;;;;;2086472;28;20025;-72
2021/12/25 03:43:30;;;;;;;15.73;14.25;;;4.60;99.90;;;;;;2080542;28;20425;-72
2021/12/25 03:44:32;;;;;;;15.35;13.85;;;4.60;99.90;;;;;;2081514;28;20572;-72
2021/12/25 03:45:35;;;;;;;15.32;13.85;;;4.60;99.90;;;;;;2085481;28;20017;-72
2021/12/25 03:46:38;;;;;;;15.13;13.68;;;4.50;99.90;;;;;;2090333;28;20071;-72
2021/12/25 03:47:40;;;;;;;17.00;15.30;;;4.50;99.90;;;;;;2089815;28;20017;-72
2021/12/25 03:53:11;;;;;;;15.60;14.07;;;4.50;99.90;;;;;;2089563;28;20040;-72
2021/12/25 03:57:41;;;;;;;15.95;13.20;;;4.40;99.90;;;;;;2086966;28;20033;-72
2021/12/25 03:58:42;;;;;;;15.32;13.82;;;4.40;99.90;;;;;;2073673;28;20028;-72
2021/12/25 03:59:46;;;;;;;14.20;12.85;;;4.40;99.90;;;;;;2078571;28;20025;-72
2021/12/25 04:00:49;;;;;;;13.68;12.38;;;4.40;99.90;;;;;;2078680;28;20108;-72
2021/12/25 04:01:57;;;;;;;13.73;12.38;;;4.40;99.90;;;;;;2078269;28;20016;-72
2021/12/25 04:03:03;;;;;;;15.05;13.48;;;4.40;99.90;;;;;;2079123;28;20018;-72
2021/12/25 04:05:44;;;;;;;14.50;13.13;;;4.40;99.90;;;;;;2065157;28;20042;-72
2021/12/25 04:08:08;;;;;;;14.57;13.20;;;4.40;99.90;;;;;;2076326;28;20037;-71
2021/12/25 04:09:20;;;;;;;14.77;13.38;;;4.30;99.90;;;;;;2081013;28;20036;-72
2021/12/25 04:10:20;;;;;;;14.60;13.23;;;4.30;99.90;;;;;;2078370;28;20029;-72
2021/12/25 04:11:30;;;;;;;14.45;13.05;;;4.40;99.90;;;;;;2074130;28;20038;-71
2021/12/25 04:12:30;;;;;;;14.75;13.25;;;4.30;99.90;;;;;;2077025;28;20025;-71
2021/12/25 04:13:32;;;;;;;14.70;13.20;;;4.30;99.90;;;;;;2084947;28;20569;-72
2021/12/25 04:14:33;;;;;;;14.77;13.45;;;4.30;99.90;;;;;;2081113;28;20415;-71
2021/12/25 04:15:33;;;;;;;15.88;14.27;;;4.30;99.90;;;;;;2078226;28;20033;-71
2021/12/25 04:16:34;;;;;;;14.93;13.43;;;4.30;99.90;;;;;;2079018;28;20033;-72
2021/12/25 04:17:35;;;;;;;15.30;13.77;;;4.30;99.90;;;;;;2084030;28;20024;-72
2021/12/25 04:18:35;;;;;;;14.18;12.88;;;4.30;99.90;;;;;;2091646;28;20027;-72
2021/12/25 04:19:36;;;;;;;14.82;13.43;;;4.30;99.90;;;;;;2080537;28;20053;-72
2021/12/25 04:20:37;;;;;;;15.38;13.93;;;4.30;99.90;;;;;;2080274;28;20028;-72
2021/12/25 04:21:46;;;;;;;15.50;13.73;;;4.30;99.90;;;;;;2080370;28;20100;-72
2021/12/25 04:22:55;;;;;;;14.48;13.18;;;4.30;99.90;;;;;;2075303;28;20025;-72
2021/12/25 04:23:56;;;;;;;15.18;13.77;;;4.30;99.90;;;;;;2080598;28;20023;-71
2021/12/25 04:24:56;;;;;;;15.65;14.23;;;4.30;99.90;;;;;;2079449;28;20029;-71
2021/12/25 04:25:59;;;;;;;15.15;13.75;;;4.30;99.90;;;;;;2083225;28;20087;-72
2021/12/25 04:27:00;;;;;;;14.55;13.20;;;4.30;99.90;;;;;;2075527;28;20026;-72
2021/12/25 04:28:09;;;;;;;15.90;14.38;;;4.30;99.90;;;;;;2085535;28;20037;-72
2021/12/25 04:33:18;;;;;;;15.63;13.48;;;4.40;99.90;;;;;;2082913;28;20033;-71
2021/12/25 04:50:04;;;;;;;12.23;11.10;;;4.10;99.90;;;;;;2080720;28;20037;-71
2021/12/25 05:04:09;;;;;;;12.27;11.18;;;4.00;99.90;;;;;;2071970;28;20037;-72
2021/12/25 05:05:14;;;;;;;12.23;11.00;;;4.00;99.90;;;;;;2077140;28;20480;-71
2021/12/25 05:06:15;;;;;;;11.82;10.82;;;4.00;99.90;;;;;;2080394;28;20029;-71
2021/12/25 05:07:16;;;;;;;11.27;10.32;;;4.00;99.90;;;;;;2074118;28;20097;-71
2021/12/25 05:08:16;;;;;;;11.55;10.50;;;4.00;99.90;;;;;;2075734;28;20033;-71
2021/12/25 05:09:17;;;;;;;11.90;10.80;;;4.00;99.90;;;;;;2080196;28;20041;-72
2021/12/25 05:10:17;;;;;;;11.65;10.65;;;4.10;99.90;;;;;;2077796;28;20040;-72
2021/12/25 05:11:19;;;;;;;12.18;10.98;;;4.00;99.90;;;;;;2064831;28;20038;-72
2021/12/25 05:12:20;;;;;;;12.48;10.30;;;4.00;99.90;;;;;;2079538;28;20417;-72
2021/12/25 05:13:21;;;;;;;10.70;9.60;;;4.00;99.90;;;;;;2079848;28;20036;-72
2021/12/25 05:14:21;;;;;;;10.88;9.88;;;4.00;99.90;;;;;;2071928;28;20044;-72
2021/12/25 05:15:22;;;;;;;11.52;10.18;;;4.00;99.90;;;;;;2080266;28;20034;-72
2021/12/25 05:16:22;;;;;;;11.68;10.68;;;4.00;99.90;;;;;;2080010;28;20105;-72
2021/12/25 05:17:23;;;;;;;11.48;10.48;;;4.00;99.90;;;;;;2079830;28;20029;-72
2021/12/25 05:18:24;;;;;;;11.80;10.75;;;4.00;99.90;;;;;;2086954;28;20039;-72
2021/12/25 05:19:25;;;;;;;11.10;10.13;;;4.00;99.90;;;;;;2085344;28;20021;-72
2021/12/25 05:20:26;;;;;;;10.52;9.52;;;4.00;99.90;;;;;;2080337;28;20479;-71
2021/12/25 05:21:26;;;;;;;11.50;10.40;;;3.90;99.90;;;;;;2079800;28;20029;-71
2021/12/25 05:22:28;;;;;;;11.82;10.60;;;3.90;99.90;;;;;;2080029;28;20021;-71
2021/12/25 05:23:28;;;;;;;10.93;9.80;;;3.90;99.90;;;;;;2079424;28;20385;-71
2021/12/25 05:24:29;;;;;;;10.18;9.27;;;3.90;99.90;;;;;;2079919;28;20100;-71
2021/12/25 05:25:31;;;;;;;10.30;9.32;;;3.90;99.90;;;;;;2079926;28;20142;-71
2021/12/25 05:26:33;;;;;;;11.38;10.27;;;3.90;99.90;;;;;;2079683;28;20484;-71
2021/12/25 05:27:34;;;;;;;11.75;10.60;;;3.90;99.90;;;;;;2082710;28;20064;-71
2021/12/25 05:28:44;;;;;;;9.55;8.75;;;3.90;99.90;;;;;;2088385;28;20028;-71
2021/12/25 05:29:46;;;;;;;9.30;8.50;;;3.80;99.90;;;;;;2087613;28;20044;-72
2021/12/25 05:30:47;;;;;;;9.75;8.85;;;3.80;99.90;;;;;;2074520;28;20452;-71
2021/12/25 05:31:48;;;;;;;9.80;8.90;;;3.70;99.90;;;;;;2079496;28;20091;-71
2021/12/25 05:32:48;;;;;;;10.52;9.45;;;3.70;99.90;;;;;;2079660;28;20105;-71
2021/12/25 05:33:49;;;;;;;9.90;8.90;;;3.70;99.90;;;;;;2079245;28;20110;-71
2021/12/25 05:34:49;;;;;;;10.25;9.20;;;3.70;99.90;;;;;;2079894;28;20052;-71
2021/12/25 05:35:50;;;;;;;10.50;9.50;;;3.70;99.90;;;;;;2079392;28;20033;-71
2021/12/25 05:36:52;;;;;;;10.77;9.73;;;3.70;99.90;;;;;;2079185;28;20040;-72
2021/12/25 05:37:57;;;;;;;11.30;10.30;;;3.70;99.90;;;;;;2079226;28;20056;-72
2021/12/25 05:39:00;;;;;;;10.98;9.00;;;3.70;99.90;;;;;;2079541;28;20022;-72
2021/12/25 05:40:01;;;;;;;9.88;9.07;;;3.80;99.90;;;;;;2078822;28;20029;-71
2021/12/25 05:41:03;;;;;;;10.98;10.02;;;3.80;99.90;;;;;;2079131;28;20037;-71
2021/12/25 05:42:03;;;;;;;11.57;10.50;;;3.70;99.90;;;;;;2088965;28;20032;-71
2021/12/25 05:43:04;;;;;;;12.43;9.50;;;3.80;99.90;;;;;;2087400;28;20040;-72
2021/12/25 05:44:05;;;;;;;10.93;9.90;;;3.80;99.90;;;;;;2087221;28;20021;-72
2021/12/25 05:45:07;;;;;;;12.13;10.25;;;3.80;99.90;;;;;;2088281;28;20505;-72
2021/12/25 05:46:07;;;;;;;11.30;10.20;;;3.80;99.90;;;;;;2080199;28;20048;-71
2021/12/25 05:47:08;;;;;;;11.05;9.98;;;3.80;99.90;;;;;;2079810;28;20048;-71
2021/12/25 05:48:09;;;;;;;11.27;10.13;;;3.80;99.90;;;;;;2079827;28;20129;-71
2021/12/25 05:49:09;;;;;;;10.65;9.65;;;3.80;99.90;;;;;;2079062;28;20036;-71
2021/12/25 05:50:10;;;;;;;11.63;9.98;;;3.80;99.90;;;;;;2080536;28;20044;-72
2021/12/25 05:51:12;;;;;;;10.90;9.18;;;3.80;99.90;;;;;;2088071;28;20036;-72
2021/12/25 05:52:13;;;;;;;11.13;9.80;;;3.70;99.90;;;;;;2088071;28;20025;-71
2021/12/25 05:53:14;;;;;;;10.88;9.63;;;3.70;99.90;;;;;;2087494;28;20036;-71
2021/12/25 05:54:14;;;;;;;10.63;9.63;;;3.80;99.90;;;;;;2088078;28;20036;-71
2021/12/25 05:55:15;;;;;;;11.27;9.20;;;3.70;99.90;;;;;;2086257;28;20029;-71
2021/12/25 05:56:16;;;;;;;10.60;9.65;;;3.80;99.90;;;;;;2080018;28;20033;-71
2021/12/25 05:57:16;;;;;;;10.65;9.48;;;3.70;99.90;;;;;;2086088;28;20108;-71
2021/12/25 05:58:17;;;;;;;10.55;9.55;;;3.70;99.90;;;;;;2088016;28;20017;-71
2021/12/25 05:59:17;;;;;;;10.60;9.55;;;3.70;99.90;;;;;;2084284;28;20072;-71
2021/12/25 06:00:20;;;;;;;10.30;9.27;;;3.70;99.90;;;;;;2079049;28;20032;-71
2021/12/25 06:01:20;;;;;;;10.23;9.23;;;3.70;99.90;;;;;;2078488;28;20096;-71
2021/12/25 06:02:21;;;;;;;10.00;9.10;;;3.60;99.90;;;;;;2087737;28;20048;-71
2021/12/25 06:03:22;;;;;;;10.23;9.23;;;3.70;99.90;;;;;;2086629;28;20094;-71
2021/12/25 06:04:22;;;;;;;10.40;9.40;;;3.70;99.90;;;;;;2078995;28;20022;-72
2021/12/25 06:05:24;;;;;;;10.43;9.48;;;3.60;99.90;;;;;;2070684;28;20568;-71
2021/12/25 06:06:25;;;;;;;11.02;9.80;;;3.60;99.90;;;;;;2071071;28;20026;-71
2021/12/25 06:07:25;;;;;;;10.65;9.60;;;3.60;99.90;;;;;;2071949;28;20030;-71
2021/12/25 06:08:27;;;;;;;10.45;9.45;;;3.60;99.90;;;;;;2080062;28;20037;-71
2021/12/25 06:09:27;;;;;;;11.35;9.38;;;3.60;99.90;;;;;;2086812;28;20041;-71
2021/12/25 06:10:28;;;;;;;10.40;9.35;;;3.60;99.90;;;;;;2077135;28;20052;-71
2021/12/25 06:11:31;;;;;;;10.07;9.05;;;3.60;99.90;;;;;;2081465;28;20068;-71
2021/12/25 06:12:32;;;;;;;10.15;9.20;;;3.60;99.90;;;;;;2083540;28;20064;-72
2021/12/25 06:13:38;;;;;;;10.20;9.07;;;3.60;99.90;;;;;;2080812;28;20104;-72
2021/12/25 06:14:38;;;;;;;10.38;9.35;;;3.60;99.90;;;;;;2081159;28;20033;-71
2021/12/25 06:15:39;;;;;;;10.52;9.63;;;3.60;99.90;;;;;;2087975;28;20099;-72
2021/12/25 06:16:39;;;;;;;10.32;9.23;;;3.60;99.90;;;;;;2088042;28;20092;-71
2021/12/25 06:17:40;;;;;;;10.98;9.32;;;3.60;99.90;;;;;;2084466;28;20025;-71
2021/12/25 06:18:41;;;;;;;10.55;8.82;;;3.60;99.90;;;;;;2079889;28;20792;-71
2021/12/25 06:19:42;;;;;;;9.25;8.40;;;3.60;99.90;;;;;;2079106;28;20026;-71
2021/12/25 06:20:42;;;;;;;9.85;8.90;;;3.60;99.90;;;;;;2079867;28;20100;-71
2021/12/25 06:21:43;;;;;;;10.43;9.48;;;3.60;99.90;;;;;;2086748;28;20896;-71
2021/12/25 06:22:44;;;;;;;9.63;8.73;;;3.60;99.90;;;;;;2087333;28;20120;-71
2021/12/25 06:23:45;;;;;;;9.45;8.65;;;3.60;99.90;;;;;;2081476;28;20025;-72
2021/12/25 06:24:49;;;;;;;10.05;9.02;;;3.60;99.90;;;;;;2079165;28;20025;-71
2021/12/25 06:25:51;;;;;;;9.70;8.77;;;3.60;99.90;;;;;;2081222;28;20049;-71
2021/12/25 06:26:51;;;;;;;10.15;9.15;;;3.60;99.90;;;;;;2078756;28;20033;-71
2021/12/25 06:27:52;;;;;;;9.27;8.43;;;3.60;99.90;;;;;;2080179;28;20037;-71
2021/12/25 06:28:53;;;;;;;11.02;9.90;;;3.60;99.90;;;;;;2078710;28;20088;-71
2021/12/25 06:29:53;;;;;;;9.50;8.60;;;3.60;99.90;;;;;;2078743;28;20038;-71
2021/12/25 06:30:54;;;;;;;10.57;9.57;;;3.60;99.90;;;;;;2087065;28;20059;-71